Time;durP1;ratioP1;P1;durP2;ratioP2;P2;SDS_P1;SDS_P2;PMS_P1;PMS_P2;Temp;Humidity;BMP_temperature;BMP_pressure;BME280_temperature;BME280_humidity;BME280_pressure;Samples;Min_cycle;Max_cycle;Signal;HPM_P1;HPM_P2
2022/03/29 00:00:57;;;;;;;;;;;6.70;99.90;;;;;;5099601;28;19932;-73
2022/03/29 00:03:24;;;;;;;;;;;6.80;99.90;;;;;;5104724;28;19931;-73
2022/03/29 00:05:52;;;;;;;;;;;6.90;99.90;;;;;;5104140;28;19928;-73
2022/03/29 00:08:19;;;;;;;;;;;6.90;99.90;;;;;;5102912;28;20332;-73
2022/03/29 00:10:45;;;;;;;;;;;7.00;99.90;;;;;;5103443;28;19924;-73
2022/03/29 00:13:15;;;;;;;;;;;7.10;99.90;;;;;;5108313;28;19923;-73
2022/03/29 00:15:41;;;;;;;;;;;7.10;99.90;;;;;;5106541;28;20363;-73
2022/03/29 00:18:08;;;;;;;;;;;7.20;99.90;;;;;;5102865;28;19923;-73
2022/03/29 00:20:37;;;;;;;;;;;7.20;99.90;;;;;;5104887;28;19928;-73
2022/03/29 00:23:04;;;;;;;;;;;7.20;99.90;;;;;;5102094;28;19924;-73
2022/03/29 00:25:30;;;;;;;;;;;7.20;99.90;;;;;;5105002;28;19970;-73
2022/03/29 00:27:57;;;;;;;;;;;7.10;99.90;;;;;;5100307;28;19924;-74
2022/03/29 00:30:24;;;;;;;;;;;7.00;99.90;;;;;;5103837;28;19932;-73
2022/03/29 00:32:51;;;;;;;;;;;7.00;99.90;;;;;;5103252;28;20340;-74
2022/03/29 00:35:18;;;;;;;;;;;7.10;99.90;;;;;;5090912;28;19924;-74
2022/03/29 00:37:48;;;;;;;;;;;7.00;99.90;;;;;;5098891;28;20352;-73
2022/03/29 00:40:14;;;;;;;;;;;6.90;99.90;;;;;;5103185;28;19969;-74
2022/03/29 00:42:41;;;;;;;;;;;6.80;99.90;;;;;;5099614;28;19924;-74
2022/03/29 00:45:08;;;;;;;;;;;6.80;99.90;;;;;;5099259;27;20382;-73
2022/03/29 00:47:37;;;;;;;;;;;6.70;99.90;;;;;;5087299;28;20202;-73
2022/03/29 00:50:11;;;;;;;;;;;6.60;99.90;;;;;;5097394;28;19934;-74
2022/03/29 00:52:39;;;;;;;;;;;6.60;99.90;;;;;;5082330;28;19954;-74
2022/03/29 00:55:07;;;;;;;;;;;6.60;99.90;;;;;;5107697;28;19967;-74
2022/03/29 00:57:36;;;;;;;;;;;6.60;99.90;;;;;;5090049;28;19924;-74
2022/03/29 01:00:04;;;;;;;;;;;6.60;99.90;;;;;;5111821;28;20439;-74
2022/03/29 01:02:30;;;;;;;;;;;6.60;99.90;;;;;;5097946;28;20023;-74
2022/03/29 01:04:57;;;;;;;;;;;6.60;99.90;;;;;;5113334;28;19924;-74
2022/03/29 01:07:27;;;;;;;;;;;6.60;99.90;;;;;;5107666;28;19963;-74
2022/03/29 01:09:54;;;;;;;;;;;6.60;99.90;;;;;;5107821;28;19924;-74
2022/03/29 01:12:22;;;;;;;;;;;6.50;99.90;;;;;;5099855;28;19979;-74
2022/03/29 01:14:49;;;;;;;;;;;6.50;99.90;;;;;;5102050;28;19959;-74
2022/03/29 01:20:02;;;;;;;;;;;6.60;99.90;;;;;;5110268;28;19928;-75
2022/03/29 01:22:29;;;;;;;;;;;6.70;99.90;;;;;;5095858;28;20015;-75
2022/03/29 01:24:56;;;;;;;;;;;6.70;99.90;;;;;;5080741;28;19932;-75
2022/03/29 01:27:23;;;;;;;;;;;6.60;99.90;;;;;;5107064;28;19934;-74
2022/03/29 01:29:52;;;;;;;;;;;6.50;99.90;;;;;;5104498;28;19970;-74
2022/03/29 01:32:23;;;;;;;;;;;6.40;99.90;;;;;;5104571;28;19924;-74
2022/03/29 01:34:51;;;;;;;;;;;6.30;99.90;;;;;;5081042;28;19932;-74
2022/03/29 01:37:20;;;;;;;;;;;6.20;99.90;;;;;;5102945;28;19924;-75
2022/03/29 01:39:47;;;;;;;;;;;6.10;99.90;;;;;;5105758;28;19924;-72
2022/03/29 01:42:13;;;;;;;;;;;6.00;99.90;;;;;;5100409;28;19930;-74
2022/03/29 01:44:40;;;;;;;;;;;5.80;99.90;;;;;;5089135;28;20018;-74
2022/03/29 01:47:08;;;;;;;;;;;5.80;99.90;;;;;;5104236;28;19924;-73
2022/03/29 01:49:38;;;;;;;;;;;5.70;99.90;;;;;;5084341;28;19924;-73
2022/03/29 01:52:04;;;;;;;;;;;5.60;99.90;;;;;;5104317;28;19930;-73
2022/03/29 01:54:31;;;;;;;;;;;5.50;99.90;;;;;;5102313;28;19978;-73
2022/03/29 01:56:58;;;;;;;;;;;5.50;99.90;;;;;;5106517;28;20018;-73
2022/03/29 02:00:30;;;;;;;;;;;5.40;99.90;;;;;;5108371;27;20109;-73
2022/03/29 02:02:14;;;;;;;;;;;5.40;99.90;;;;;;5095124;28;19928;-73
2022/03/29 02:04:41;;;;;;;;;;;5.40;99.90;;;;;;5094625;28;20014;-73
2022/03/29 02:07:08;;;;;;;;;;;5.40;99.90;;;;;;5083127;28;20404;-73
2022/03/29 02:09:34;;;;;;;;;;;5.40;99.90;;;;;;5103332;28;19954;-74
2022/03/29 02:12:02;;;;;;;;;;;5.40;99.90;;;;;;5094256;28;19932;-74
2022/03/29 02:14:28;;;;;;;;;;;5.30;99.90;;;;;;5085763;28;20010;-74
2022/03/29 02:16:55;;;;;;;;;;;5.30;99.90;;;;;;5095766;28;19924;-73
2022/03/29 02:19:22;;;;;;;;;;;5.30;99.90;;;;;;5102550;28;19955;-74
2022/03/29 02:21:49;;;;;;;;;;;5.30;99.90;;;;;;5103034;28;19951;-73
2022/03/29 02:24:15;;;;;;;;;;;5.30;99.90;;;;;;5098078;28;20496;-73
2022/03/29 02:26:42;;;;;;;;;;;5.30;99.90;;;;;;5100772;28;19930;-74
2022/03/29 02:29:09;;;;;;;;;;;5.30;99.90;;;;;;5078824;28;19932;-74
2022/03/29 02:31:39;;;;;;;;;;;5.30;99.90;;;;;;5109633;28;20569;-74
2022/03/29 02:34:06;;;;;;;;;;;5.40;99.90;;;;;;5106501;28;20371;-74
2022/03/29 02:36:32;;;;;;;;;;;5.40;99.90;;;;;;5097326;28;19935;-74
2022/03/29 02:38:59;;;;;;;;;;;5.50;99.90;;;;;;5097784;28;19950;-74
2022/03/29 02:41:25;;;;;;;;;;;5.50;99.90;;;;;;5090345;28;19970;-73
2022/03/29 02:43:52;;;;;;;;;;;5.50;99.90;;;;;;5085154;28;19927;-73
2022/03/29 02:46:19;;;;;;;;;;;5.60;99.90;;;;;;5098009;28;19998;-73
2022/03/29 02:48:46;;;;;;;;;;;5.60;99.90;;;;;;5104885;28;19986;-74
2022/03/29 02:51:12;;;;;;;;;;;5.60;99.90;;;;;;5107281;28;20398;-73
2022/03/29 02:53:39;;;;;;;;;;;5.60;99.90;;;;;;5101535;28;20018;-74
2022/03/29 02:56:06;;;;;;;;;;;5.60;99.90;;;;;;5098744;28;19923;-74
2022/03/29 02:58:32;;;;;;;;;;;5.50;99.90;;;;;;5090947;28;20015;-74
2022/03/29 03:00:59;;;;;;;;;;;5.50;99.90;;;;;;5105074;28;19924;-73
2022/03/29 03:03:26;;;;;;;;;;;5.40;99.90;;;;;;5100683;28;20010;-74
2022/03/29 03:05:53;;;;;;;;;;;5.40;99.90;;;;;;5109152;28;19923;-74
2022/03/29 03:08:20;;;;;;;;;;;5.40;99.90;;;;;;5089089;28;19927;-74
2022/03/29 03:10:46;;;;;;;;;;;5.50;99.90;;;;;;5082030;28;20011;-74
2022/03/29 03:13:13;;;;;;;;;;;5.40;99.90;;;;;;5101075;28;19924;-74
2022/03/29 03:15:40;;;;;;;;;;;5.40;99.90;;;;;;5101947;28;19927;-74
2022/03/29 03:18:09;;;;;;;;;;;5.30;99.90;;;;;;5106469;28;19928;-74
2022/03/29 03:20:36;;;;;;;;;;;5.30;99.90;;;;;;5101462;28;19930;-75
2022/03/29 03:23:06;;;;;;;;;;;5.30;99.90;;;;;;5098298;28;19939;-74
2022/03/29 03:25:32;;;;;;;;;;;5.40;99.90;;;;;;5102613;28;19927;-74
2022/03/29 03:27:59;;;;;;;;;;;5.40;99.90;;;;;;5100701;28;20031;-74
2022/03/29 03:30:26;;;;;;;;;;;5.40;99.90;;;;;;5092887;28;21491;-74
2022/03/29 03:32:54;;;;;;;;;;;5.50;99.90;;;;;;5105380;28;20527;-74
2022/03/29 03:35:20;;;;;;;;;;;5.50;99.90;;;;;;5100593;28;20560;-74
2022/03/29 03:37:48;;;;;;;;;;;5.50;99.90;;;;;;5102750;28;20010;-74
2022/03/29 03:40:15;;;;;;;;;;;5.50;99.90;;;;;;5102676;28;19938;-74
2022/03/29 03:42:42;;;;;;;;;;;5.50;99.90;;;;;;5103464;28;19989;-74
2022/03/29 03:45:09;;;;;;;;;;;5.60;99.90;;;;;;5103217;28;19931;-74
2022/03/29 03:47:36;;;;;;;;;;;5.60;99.90;;;;;;5102609;28;19924;-74
2022/03/29 03:50:04;;;;;;;;;;;5.60;99.90;;;;;;5102406;28;20435;-74
2022/03/29 03:52:30;;;;;;;;;;;5.70;99.90;;;;;;5102892;28;19923;-74
2022/03/29 03:54:57;;;;;;;;;;;5.80;99.90;;;;;;5092796;28;19927;-72
2022/03/29 03:57:24;;;;;;;;;;;5.80;99.90;;;;;;5099170;28;20402;-72
2022/03/29 03:59:52;;;;;;;;;;;5.90;99.90;;;;;;5083178;28;19928;-72
2022/03/29 04:02:21;;;;;;;;;;;5.90;99.90;;;;;;5091951;28;19928;-73
2022/03/29 04:04:48;;;;;;;;;;;5.90;99.90;;;;;;5107790;28;19924;-74
2022/03/29 04:07:15;;;;;;;;;;;5.80;99.90;;;;;;5103980;28;20419;-74
2022/03/29 04:09:44;;;;;;;;;;;5.80;99.90;;;;;;5107172;28;19924;-73
2022/03/29 04:12:11;;;;;;;;;;;5.70;99.90;;;;;;5105270;28;19931;-73
2022/03/29 04:14:38;;;;;;;;;;;5.60;99.90;;;;;;5090165;28;20024;-73
2022/03/29 04:17:04;;;;;;;;;;;5.60;99.90;;;;;;5109310;28;19962;-73
2022/03/29 04:19:31;;;;;;;;;;;5.50;99.90;;;;;;5101602;28;21809;-74
2022/03/29 04:22:00;;;;;;;;;;;5.40;99.90;;;;;;5097661;28;19931;-74
2022/03/29 04:24:27;;;;;;;;;;;5.40;99.90;;;;;;5102176;28;19931;-73
2022/03/29 04:26:53;;;;;;;;;;;5.30;99.90;;;;;;5109977;28;19971;-74
2022/03/29 04:29:20;;;;;;;;;;;5.20;99.90;;;;;;5084546;28;19927;-74
2022/03/29 04:31:47;;;;;;;;;;;5.10;99.90;;;;;;5097535;28;20007;-73
2022/03/29 04:34:14;;;;;;;;;;;5.10;99.90;;;;;;5108247;28;20018;-74
2022/03/29 04:36:43;;;;;;;;;;;5.10;99.90;;;;;;5105159;28;19955;-73
2022/03/29 04:39:10;;;;;;;;;;;5.10;99.90;;;;;;5102060;28;19923;-73
2022/03/29 04:41:37;;;;;;;;;;;5.10;99.90;;;;;;5096088;28;19924;-74
2022/03/29 04:44:23;;;;;;;;;;;5.10;99.90;;;;;;5102905;28;19927;-73
2022/03/29 04:46:50;;;;;;;;;;;5.10;99.90;;;;;;5108414;28;19931;-73
2022/03/29 04:49:17;;;;;;;;;;;5.10;99.90;;;;;;5104887;28;20018;-73
2022/03/29 04:51:43;;;;;;;;;;;5.00;99.90;;;;;;5104442;28;20023;-74
2022/03/29 04:54:10;;;;;;;;;;;5.00;99.90;;;;;;5102729;28;20006;-73
2022/03/29 04:56:42;;;;;;;;;;;5.10;99.90;;;;;;5085802;28;19976;-74
2022/03/29 04:59:09;;;;;;;;;;;5.10;99.90;;;;;;5104739;28;19931;-74
2022/03/29 05:01:36;;;;;;;;;;;5.20;99.90;;;;;;5087743;28;20312;-74
2022/03/29 05:04:04;;;;;;;;;;;5.20;99.90;;;;;;5087999;28;20006;-74
2022/03/29 05:06:32;;;;;;;;;;;5.20;99.90;;;;;;5107237;28;19924;-73
2022/03/29 05:08:59;;;;;;;;;;;5.10;99.90;;;;;;5099374;28;19967;-73
2022/03/29 05:11:26;;;;;;;;;;;5.10;99.90;;;;;;5094884;28;20298;-74
2022/03/29 05:13:52;;;;;;;;;;;5.10;99.90;;;;;;5102172;28;20016;-73
2022/03/29 05:16:21;;;;;;;;;;;5.20;99.90;;;;;;5098320;28;19930;-74
2022/03/29 05:18:49;;;;;;;;;;;5.20;99.90;;;;;;5106870;28;20031;-74
2022/03/29 05:21:16;;;;;;;;;;;5.20;99.90;;;;;;5104923;28;20018;-74
2022/03/29 05:23:42;;;;;;;;;;;5.20;99.90;;;;;;5104988;28;19928;-73
2022/03/29 05:26:09;;;;;;;;;;;5.20;99.90;;;;;;5102322;28;19924;-73
2022/03/29 05:28:36;;;;;;;;;;;5.20;99.90;;;;;;5103725;28;20014;-73
2022/03/29 05:31:02;;;;;;;;;;;5.20;99.90;;;;;;5097701;28;19928;-73
2022/03/29 05:33:29;;;;;;;;;;;5.20;99.90;;;;;;5104011;28;20379;-73
2022/03/29 05:35:58;;;;;;;;;;;5.20;99.90;;;;;;5104627;28;19927;-73
2022/03/29 05:38:28;;;;;;;;;;;5.30;99.90;;;;;;5108778;28;20002;-73
2022/03/29 05:40:55;;;;;;;;;;;5.40;99.90;;;;;;5104843;28;20018;-73
2022/03/29 05:43:21;;;;;;;;;;;5.50;99.90;;;;;;5098378;28;20196;-73
2022/03/29 05:48:52;;;;;;;;;;;5.80;99.90;;;;;;5105261;28;20596;-73
2022/03/29 05:51:19;;;;;;;;;;;6.00;99.90;;;;;;5097455;28;19938;-73
2022/03/29 05:53:46;;;;;;;;;;;6.20;99.90;;;;;;5097054;28;19924;-73
2022/03/29 05:56:12;;;;;;;;;;;6.30;99.90;;;;;;5100311;28;20018;-73
2022/03/29 05:58:40;;;;;;;;;;;6.50;99.90;;;;;;5090515;28;19938;-73
2022/03/29 06:01:07;;;;;;;;;;;6.70;99.90;;;;;;5085186;27;19927;-73
2022/03/29 06:03:34;;;;;;;;;;;6.80;99.90;;;;;;5097550;28;19928;-73
2022/03/29 06:06:05;;;;;;;;;;;7.00;99.90;;;;;;5095388;28;20312;-73
2022/03/29 06:08:37;;;;;;;;;;;7.20;99.90;;;;;;5102081;27;20439;-74
2022/03/29 06:11:07;;;;;;;;;;;7.40;99.90;;;;;;5098827;27;19976;-74
2022/03/29 06:13:34;;;;;;;;;;;7.50;99.90;;;;;;5104081;28;20049;-74
2022/03/29 06:16:02;;;;;;;;;;;7.70;99.90;;;;;;5105241;28;20038;-74
2022/03/29 06:18:30;;;;;;;;;;;7.90;99.90;;;;;;5091285;28;19939;-74
2022/03/29 06:20:57;;;;;;;;;;;7.90;99.90;;;;;;5105534;28;19923;-74
2022/03/29 06:23:24;;;;;;;;;;;7.90;99.90;;;;;;5097216;28;20019;-74
2022/03/29 06:25:51;;;;;;;;;;;7.80;99.90;;;;;;5103276;28;20290;-73
2022/03/29 06:28:17;;;;;;;;;;;7.70;99.90;;;;;;5093525;27;21880;-73
2022/03/29 06:30:45;;;;;;;;;;;7.70;99.90;;;;;;5084085;28;19924;-73
2022/03/29 06:33:13;;;;;;;;;;;7.60;99.90;;;;;;5094778;28;19971;-74
2022/03/29 06:35:45;;;;;;;;;;;7.70;99.90;;;;;;5098795;28;19930;-74
2022/03/29 06:38:11;;;;;;;;;;;7.80;99.90;;;;;;5103286;27;19923;-75
2022/03/29 06:40:40;;;;;;;;;;;8.00;99.90;;;;;;5096943;28;22757;-73
2022/03/29 06:43:07;;;;;;;;;;;8.20;99.90;;;;;;5084004;28;20315;-73
2022/03/29 06:45:34;;;;;;;;;;;8.50;99.90;;;;;;5094999;28;19927;-73
2022/03/29 06:48:01;;;;;;;;;;;8.80;99.90;;;;;;5101018;27;19923;-74
2022/03/29 06:50:28;;;;;;;;;;;9.20;99.90;;;;;;5081991;28;20010;-74
2022/03/29 06:52:55;;;;;;;;;;;9.60;99.90;;;;;;5098824;27;19924;-75
2022/03/29 06:55:26;;;;;;;;;;;10.00;99.90;;;;;;5086745;28;19927;-75
2022/03/29 06:57:53;;;;;;;;;;;10.40;99.90;;;;;;5098781;27;19981;-75
2022/03/29 07:00:20;;;;;;;;;;;10.70;99.90;;;;;;5111592;27;20819;-75
2022/03/29 07:02:48;;;;;;;;;;;11.00;99.90;;;;;;5107649;28;19924;-75
2022/03/29 07:05:15;;;;;;;;;;;11.30;99.90;;;;;;5094043;28;19970;-75
2022/03/29 07:07:42;;;;;;;;;;;11.50;99.90;;;;;;5108325;28;20481;-76
2022/03/29 07:13:01;;;;;;;;;;;11.90;99.90;;;;;;5099149;28;19979;-75
2022/03/29 07:15:28;;;;;;;;;;;12.00;99.90;;;;;;5102081;28;19924;-75
2022/03/29 07:17:55;;;;;;;;;;;12.20;99.90;;;;;;5098003;28;19924;-76
2022/03/29 07:20:22;;;;;;;;;;;12.30;99.90;;;;;;5096535;28;20355;-76
2022/03/29 07:22:49;;;;;;;;;;;12.70;99.90;;;;;;5092018;28;20447;-76
2022/03/29 07:25:20;;;;;;;;;;;12.90;99.90;;;;;;5094276;28;19928;-76
2022/03/29 07:27:53;;;;;;;;;;;13.30;99.90;;;;;;5098655;28;20003;-76
2022/03/29 07:30:22;;;;;;;;;;;13.50;99.90;;;;;;5094664;28;19931;-74
2022/03/29 07:32:50;;;;;;;;;;;13.90;99.90;;;;;;5085151;28;19983;-74
2022/03/29 07:35:19;;;;;;;;;;;14.20;99.90;;;;;;5093581;28;19923;-74
2022/03/29 07:37:46;;;;;;;;;;;14.40;99.90;;;;;;5104019;28;19923;-74
2022/03/29 07:40:17;;;;;;;;;;;14.60;99.90;;;;;;5103658;28;19928;-74
2022/03/29 07:42:49;;;;;;;;;;;14.70;99.90;;;;;;5104735;27;19977;-74
2022/03/29 07:45:16;;;;;;;;;;;14.80;99.90;;;;;;5096286;27;20314;-74
2022/03/29 07:47:43;;;;;;;;;;;14.90;99.90;;;;;;5112442;27;19928;-74
2022/03/29 07:50:31;;;;;;;;;;;15.00;99.90;;;;;;5103974;27;19924;-74
2022/03/29 07:53:05;;;;;;;;;;;14.80;99.90;;;;;;5106325;28;19986;-74
2022/03/29 07:55:32;;;;;;;;;;;14.60;99.90;;;;;;5105325;27;19946;-75
2022/03/29 07:58:16;;;;;;;;;;;14.40;99.90;;;;;;5104341;27;20014;-75
2022/03/29 08:00:44;;;;;;;;;;;14.70;99.90;;;;;;5109971;27;19923;-74
2022/03/29 08:03:12;;;;;;;;;;;14.70;99.90;;;;;;5099334;27;19923;-74
2022/03/29 08:05:47;;;;;;;;;;;14.80;99.90;;;;;;5104528;28;20583;-74
2022/03/29 08:08:15;;;;;;;;;;;15.00;99.90;;;;;;5109526;27;19923;-75
2022/03/29 08:10:43;;;;;;;;;;;15.30;99.90;;;;;;5086562;28;19932;-75
2022/03/29 08:13:10;;;;;;;;;;;15.50;99.90;;;;;;5097293;27;19938;-74
2022/03/29 08:15:38;;;;;;;;;;;16.00;99.90;;;;;;5093466;27;19930;-75
2022/03/29 08:18:06;;;;;;;;;;;16.00;99.90;;;;;;5102563;27;19930;-75
2022/03/29 08:20:34;;;;;;;;;;;16.20;99.90;;;;;;5111526;27;19924;-74
2022/03/29 08:23:04;;;;;;;;;;;16.40;99.90;;;;;;5103396;27;19924;-75
2022/03/29 08:25:33;;;;;;;;;;;16.50;99.90;;;;;;5104341;28;20126;-75
2022/03/29 08:28:00;;;;;;;;;;;16.40;99.90;;;;;;5099943;28;19966;-74
2022/03/29 08:30:28;;;;;;;;;;;16.50;99.90;;;;;;5096772;27;19950;-75
2022/03/29 08:32:58;;;;;;;;;;;16.50;99.90;;;;;;5085884;28;19946;-73
2022/03/29 08:35:35;;;;;;;;;;;16.70;99.90;;;;;;5099477;27;19924;-74
2022/03/29 08:38:01;;;;;;;;;;;16.70;99.90;;;;;;5090357;28;19930;-74
2022/03/29 08:40:48;;;;;;;;;;;16.60;99.90;;;;;;5104613;27;19931;-74
2022/03/29 08:43:16;;;;;;;;;;;16.70;99.90;;;;;;5084265;27;20453;-74
2022/03/29 08:45:47;;;;;;;;;;;16.40;99.90;;;;;;5085171;28;19977;-74
2022/03/29 08:48:15;;;;;;;;;;;16.30;99.90;;;;;;5107935;27;20370;-74
2022/03/29 08:50:43;;;;;;;;;;;16.40;99.90;;;;;;5097605;27;19928;-75
2022/03/29 08:53:11;;;;;;;;;;;16.60;99.90;;;;;;5105217;28;19989;-76
2022/03/29 08:55:42;;;;;;;;;;;16.60;99.90;;;;;;5097579;27;19928;-74
2022/03/29 08:58:10;;;;;;;;;;;16.80;99.90;;;;;;5104526;28;19942;-73
2022/03/29 09:00:39;;;;;;;;;;;16.90;99.90;;;;;;5090772;27;21916;-75
2022/03/29 09:03:06;;;;;;;;;;;16.80;99.90;;;;;;5095170;28;20006;-67
2022/03/29 09:05:34;;;;;;;;;;;16.90;99.90;;;;;;5081811;28;19924;-72
2022/03/29 09:08:09;;;;;;;;;;;17.10;99.90;;;;;;5094631;27;19939;-61
2022/03/29 09:10:44;;;;;;;;;;;17.30;99.90;;;;;;5100269;28;19927;-61
2022/03/29 09:13:15;;;;;;;;;;;17.60;99.90;;;;;;5097769;27;20026;-61
2022/03/29 09:15:42;;;;;;;;;;;17.50;99.90;;;;;;5082271;28;19924;-61
2022/03/29 09:18:09;;;;;;;;;;;17.60;99.90;;;;;;5099444;27;19927;-61
2022/03/29 09:20:36;;;;;;;;;;;18.00;99.90;;;;;;5101210;28;19928;-61
2022/03/29 09:23:04;;;;;;;;;;;17.90;99.90;;;;;;5079431;28;19927;-61
2022/03/29 09:25:34;;;;;;;;;;;17.30;99.90;;;;;;5099915;28;19966;-61
2022/03/29 09:28:03;;;;;;;;;;;17.20;99.90;;;;;;5099501;27;21161;-61
2022/03/29 09:30:40;;;;;;;;;;;17.00;99.90;;;;;;5078000;28;19954;-62
2022/03/29 09:33:07;;;;;;;;;;;17.10;99.90;;;;;;5105353;27;20018;-61
2022/03/29 09:35:37;;;;;;;;;;;16.90;99.90;;;;;;5080609;28;19928;-61
2022/03/29 09:38:20;;;;;;;;;;;17.00;99.90;;;;;;5096420;28;19924;-61
2022/03/29 09:40:47;;;;;;;;;;;17.00;99.90;;;;;;5100506;28;19998;-62
2022/03/29 09:43:14;;;;;;;;;;;17.20;99.90;;;;;;5102008;27;19927;-61
2022/03/29 09:45:50;;;;;;;;;;;17.30;99.90;;;;;;5093768;27;20637;-62
2022/03/29 09:48:20;;;;;;;;;;;17.70;99.90;;;;;;5099646;27;19928;-61
2022/03/29 09:50:49;;;;;;;;;;;18.10;99.90;;;;;;5098185;27;20375;-61
2022/03/29 09:53:37;;;;;;;;;;;17.90;99.10;;;;;;5100537;27;19927;-63
2022/03/29 09:56:05;;;;;;;;;;;17.90;99.10;;;;;;5100675;27;19975;-61
2022/03/29 09:58:32;;;;;;;;;;;17.40;99.20;;;;;;5098086;28;19924;-61
2022/03/29 10:01:01;;;;;;;;;;;17.30;99.60;;;;;;5102239;27;19945;-61
2022/03/29 10:03:28;;;;;;;;;;;17.40;99.50;;;;;;5098613;27;20014;-65
2022/03/29 10:06:03;;;;;;;;;;;17.40;99.20;;;;;;5102185;27;19931;-61
2022/03/29 10:11:18;;;;;;;;;;;18.20;98.70;;;;;;5097941;28;19932;-61
2022/03/29 10:13:47;;;;;;;;;;;18.90;97.30;;;;;;5102997;27;19970;-62
2022/03/29 10:16:17;;;;;;;;;;;19.30;96.70;;;;;;5098610;27;19967;-62
2022/03/29 10:18:45;;;;;;;;;;;19.50;97.00;;;;;;5099668;28;20779;-61
2022/03/29 10:21:13;;;;;;;;;;;19.60;97.40;;;;;;5103550;27;19930;-61
2022/03/29 10:23:45;;;;;;;;;;;20.00;96.50;;;;;;5104803;27;20643;-61
2022/03/29 10:26:22;;;;;;;;;;;20.20;96.10;;;;;;5100256;27;19924;-61
2022/03/29 10:28:49;;;;;;;;;;;20.50;95.90;;;;;;5085003;28;20022;-61
2022/03/29 10:31:30;;;;;;;;;;;20.30;95.50;;;;;;5094249;27;19924;-61
2022/03/29 10:34:19;;;;;;;;;;;20.40;95.70;;;;;;5085646;28;19934;-61
2022/03/29 10:36:58;;;;;;;;;;;20.30;95.20;;;;;;5100447;27;19930;-61
2022/03/29 10:39:38;;;;;;;;;;;20.20;95.20;;;;;;5100361;27;19975;-61
2022/03/29 10:42:23;;;;;;;;;;;20.00;95.00;;;;;;5090525;27;19970;-61
2022/03/29 10:44:57;;;;;;;;;;;20.10;95.40;;;;;;5096566;28;19935;-61
2022/03/29 10:48:04;;;;;;;;;;;20.30;95.20;;;;;;5093536;28;19976;-61
2022/03/29 10:50:46;;;;;;;;;;;20.50;95.40;;;;;;5099716;27;20381;-61
2022/03/29 10:53:23;;;;;;;;;;;20.50;95.10;;;;;;5102349;28;19986;-61
2022/03/29 10:56:26;;;;;;;;;;;20.80;95.30;;;;;;5098419;28;19924;-61
2022/03/29 10:59:02;;;;;;;;;;;20.80;95.60;;;;;;5020030;28;19929;-61
2022/03/29 11:01:30;;;;;;;;;;;21.00;95.00;;;;;;4998440;28;19930;-61
2022/03/29 11:04:00;;;;;;;;;;;21.30;94.40;;;;;;5014888;28;19933;-61
2022/03/29 11:06:29;;;;;;;;;;;21.80;94.80;;;;;;5017046;28;19940;-60
2022/03/29 11:09:08;;;;;;;;;;;21.70;94.00;;;;;;5019072;28;20381;-61
2022/03/29 11:11:55;;;;;;;;;;;21.80;93.70;;;;;;5024625;28;19929;-61
2022/03/29 11:14:27;;;;;;;;;;;22.00;93.60;;;;;;5023677;28;19983;-61
2022/03/29 11:16:54;;;;;;;;;;;21.60;93.40;;;;;;5019969;28;19987;-61
2022/03/29 11:19:39;;;;;;;;;;;21.30;93.60;;;;;;5018870;28;20032;-61
2022/03/29 11:22:21;;;;;;;;;;;21.30;93.90;;;;;;5020891;28;19925;-61
2022/03/29 11:24:49;;;;;;;;;;;21.00;93.90;;;;;;5014323;28;19935;-61
2022/03/29 11:27:22;;;;;;;;;;;20.90;93.90;;;;;;5022915;28;19933;-61
2022/03/29 11:29:50;;;;;;;;;;;20.70;94.00;;;;;;5024077;28;19929;-61
2022/03/29 11:32:17;;;;;;;;;;;20.70;94.20;;;;;;5038031;28;20122;-61
2022/03/29 11:34:45;;;;;;;;;;;20.80;94.50;;;;;;5105279;28;19950;-61
2022/03/29 11:37:29;;;;;;;;;;;20.90;94.00;;;;;;5097725;28;19924;-61
2022/03/29 11:40:00;;;;;;;;;;;21.00;94.10;;;;;;5095940;28;19928;-62
2022/03/29 11:42:44;;;;;;;;;;;21.50;94.50;;;;;;5099550;28;20014;-61
2022/03/29 11:45:15;;;;;;;;;;;21.80;93.60;;;;;;5092627;28;20022;-61
2022/03/29 11:47:58;;;;;;;;;;;22.00;93.70;;;;;;5094185;28;19924;-61
2022/03/29 11:50:35;;;;;;;;;;;22.20;93.40;;;;;;5100368;28;19953;-62
2022/03/29 11:53:03;;;;;;;;;;;22.60;93.50;;;;;;5096872;28;20420;-61
2022/03/29 11:55:30;;;;;;;;;;;22.20;92.70;;;;;;5100039;28;19932;-61
2022/03/29 11:57:57;;;;;;;;;;;21.90;92.70;;;;;;5095354;28;19946;-61
2022/03/29 12:00:27;;;;;;;;;;;21.60;92.90;;;;;;5092409;28;19977;-61
2022/03/29 12:02:54;;;;;;;;;;;21.10;92.90;;;;;;5101565;28;19977;-61
2022/03/29 12:05:30;;;;;;;;;;;21.00;92.90;;;;;;5092660;28;19924;-61
2022/03/29 12:08:03;;;;;;;;;;;21.20;92.90;;;;;;5090575;28;19935;-61
2022/03/29 12:10:34;;;;;;;;;;;21.40;92.80;;;;;;5096897;28;20497;-61
2022/03/29 12:13:02;;;;;;;;;;;21.40;92.70;;;;;;5092394;28;19927;-61
2022/03/29 12:15:29;;;;;;;;;;;21.30;92.60;;;;;;5095420;28;19924;-62
2022/03/29 12:20:45;;;;;;;;;;;21.80;92.50;;;;;;5095141;28;19928;-61
2022/03/29 12:23:31;;;;;;;;;;;21.40;92.60;;;;;;5099603;28;19959;-61
2022/03/29 12:25:57;;;;;;;;;;;21.80;92.80;;;;;;5104943;27;19963;-61
2022/03/29 12:28:25;;;;;;;;;;;21.90;92.60;;;;;;5102758;28;20127;-61
2022/03/29 12:30:55;;;;;;;;;;;21.90;92.70;;;;;;5085531;27;20128;-64
2022/03/29 12:33:25;;;;;;;;;;;22.00;92.70;;;;;;5111495;27;19928;-61
2022/03/29 12:36:01;;;;;;;;;;;22.40;92.30;;;;;;5101781;28;20019;-61
2022/03/29 12:38:38;;;;;;;;;;;22.60;92.30;;;;;;5105328;27;20433;-62
2022/03/29 12:41:05;;;;;;;;;;;22.70;91.90;;;;;;5106645;28;20328;-61
2022/03/29 12:43:35;;;;;;;;;;;23.20;92.20;;;;;;5098852;28;20417;-61
2022/03/29 12:46:05;;;;;;;;;;;23.70;91.50;;;;;;5104254;27;19970;-61
2022/03/29 12:48:32;;;;;;;;;;;23.80;91.30;;;;;;5101330;28;20002;-61
2022/03/29 12:51:06;;;;;;;;;;;24.10;91.30;;;;;;5105099;28;20342;-61
2022/03/29 12:53:34;;;;;;;;;;;24.30;91.50;;;;;;5098440;27;19939;-60
2022/03/29 12:56:06;;;;;;;;;;;23.80;90.90;;;;;;5108947;27;19924;-61
2022/03/29 12:58:35;;;;;;;;;;;23.50;92.20;;;;;;5101714;27;19951;-61
2022/03/29 13:01:03;;;;;;;;;;;23.70;91.20;;;;;;5104366;27;19925;-60
2022/03/29 13:03:41;;;;;;;;;;;23.80;90.70;;;;;;5098857;28;19923;-60
2022/03/29 13:06:10;;;;;;;;;;;23.80;90.70;;;;;;5114577;27;20499;-61
2022/03/29 13:08:37;;;;;;;;;;;23.80;90.80;;;;;;5093136;27;19928;-60
2022/03/29 13:11:20;;;;;;;;;;;24.00;90.80;;;;;;5093289;27;19938;-60
2022/03/29 13:14:06;;;;;;;;;;;24.10;90.90;;;;;;5101629;27;19984;-60
2022/03/29 13:16:33;;;;;;;;;;;23.50;90.30;;;;;;5108302;27;19938;-61
2022/03/29 13:19:00;;;;;;;;;;;23.70;90.50;;;;;;5091866;28;21222;-60
2022/03/29 13:21:36;;;;;;;;;;;23.20;90.50;;;;;;5082546;28;20297;-60
2022/03/29 13:24:04;;;;;;;;;;;22.90;91.10;;;;;;5102066;27;19959;-61
2022/03/29 13:26:33;;;;;;;;;;;22.60;90.80;;;;;;5104051;28;20497;-61
2022/03/29 13:28:59;;;;;;;;;;;22.30;90.80;;;;;;5100144;28;20474;-61
2022/03/29 13:31:30;;;;;;;;;;;21.80;91.30;;;;;;5097821;27;20349;-63
2022/03/29 13:33:58;;;;;;;;;;;21.80;91.20;;;;;;5098595;27;19962;-61
2022/03/29 13:36:26;;;;;;;;;;;21.80;91.70;;;;;;5091375;28;19928;-62
2022/03/29 13:38:55;;;;;;;;;;;21.90;91.60;;;;;;5097611;27;19962;-61
2022/03/29 13:41:23;;;;;;;;;;;21.60;91.00;;;;;;5098904;27;20399;-61
2022/03/29 13:43:50;;;;;;;;;;;21.20;91.00;;;;;;5093438;27;19930;-60
2022/03/29 13:46:17;;;;;;;;;;;21.00;91.40;;;;;;5097218;27;19973;-60
2022/03/29 13:49:05;;;;;;;;;;;20.70;91.80;;;;;;5100087;28;19930;-60
2022/03/29 13:51:31;;;;;;;;;;;20.30;92.10;;;;;;5096186;28;19932;-60
2022/03/29 13:54:01;;;;;;;;;;;20.30;92.10;;;;;;5101993;27;19923;-61
2022/03/29 13:56:33;;;;;;;;;;;20.20;92.00;;;;;;5096192;28;19924;-61
2022/03/29 13:59:04;;;;;;;;;;;20.10;91.90;;;;;;5084716;28;19932;-61
2022/03/29 14:01:32;;;;;;;;;;;20.20;92.00;;;;;;5098896;28;20007;-61
2022/03/29 14:04:00;;;;;;;;;;;19.80;92.10;;;;;;5094740;28;19938;-62
2022/03/29 14:06:26;;;;;;;;;;;19.60;92.40;;;;;;5091753;28;20478;-62
2022/03/29 14:08:54;;;;;;;;;;;19.60;93.00;;;;;;5101961;27;20423;-61
2022/03/29 14:11:23;;;;;;;;;;;19.60;93.10;;;;;;5095181;28;19959;-61
2022/03/29 14:13:50;;;;;;;;;;;19.60;92.80;;;;;;5093817;28;19932;-62
2022/03/29 14:16:23;;;;;;;;;;;19.50;92.60;;;;;;5090564;28;19939;-69
2022/03/29 14:18:52;;;;;;;;;;;19.50;92.70;;;;;;5075489;28;19928;-69
2022/03/29 14:21:19;;;;;;;;;;;19.60;92.60;;;;;;5082420;28;19932;-68
2022/03/29 14:23:46;;;;;;;;;;;19.60;92.60;;;;;;5096092;28;19937;-71
2022/03/29 14:26:13;;;;;;;;;;;19.60;92.60;;;;;;5096696;27;19931;-69
2022/03/29 14:28:40;;;;;;;;;;;19.50;92.40;;;;;;5100520;28;20045;-70
2022/03/29 14:31:06;;;;;;;;;;;19.40;92.40;;;;;;5101826;27;19973;-71
2022/03/29 14:33:33;;;;;;;;;;;19.50;92.40;;;;;;5101211;27;20405;-71
2022/03/29 14:36:00;;;;;;;;;;;19.80;92.70;;;;;;5092676;28;20103;-70
2022/03/29 14:38:27;;;;;;;;;;;20.00;92.30;;;;;;5095536;28;19923;-64
2022/03/29 14:41:14;;;;;;;;;;;19.70;92.20;;;;;;5074982;28;19924;-63
2022/03/29 14:43:47;;;;;;;;;;;19.70;92.30;;;;;;5094396;27;19924;-61
2022/03/29 14:46:13;;;;;;;;;;;19.60;92.60;;;;;;5099643;27;19923;-61
2022/03/29 14:48:41;;;;;;;;;;;19.60;92.80;;;;;;5094655;28;20399;-61
2022/03/29 14:51:12;;;;;;;;;;;19.40;92.70;;;;;;5081512;28;19924;-62